Time;durP1;ratioP1;P1;durP2;ratioP2;P2;SDS_P1;SDS_P2;PMS_P1;PMS_P2;Temp;Humidity;BMP_temperature;BMP_pressure;BME280_temperature;BME280_humidity;BME280_pressure;Samples;Min_cycle;Max_cycle;Signal;HPM_P1;HPM_P2
2023/01/18 00:01:14;;;;;;;2.05;0.65;;;17.50;64.30;;;;;;7405706;19;19949;-76
2023/01/18 00:03:43;;;;;;;1.30;0.55;;;17.50;64.30;;;;;;7404297;19;19943;-75
2023/01/18 00:06:13;;;;;;;2.13;0.10;;;17.50;64.30;;;;;;7404938;19;19922;-76
2023/01/18 00:08:44;;;;;;;1.48;0.77;;;17.50;64.30;;;;;;7403963;19;19921;-75
2023/01/18 00:11:15;;;;;;;1.20;0.10;;;17.40;64.20;;;;;;7404598;19;20002;-76
2023/01/18 00:13:45;;;;;;;0.90;0.17;;;17.40;64.20;;;;;;7405295;19;20307;-76
2023/01/18 00:16:16;;;;;;;1.35;0.75;;;17.40;64.30;;;;;;7405513;19;19922;-76
2023/01/18 00:18:51;;;;;;;1.05;0.60;;;17.40;64.30;;;;;;7406879;19;19915;-75
2023/01/18 00:21:20;;;;;;;1.08;0.20;;;17.40;64.30;;;;;;7401513;19;19917;-75
2023/01/18 00:23:51;;;;;;;1.88;0.20;;;17.40;64.30;;;;;;7401003;19;19919;-75
2023/01/18 00:26:20;;;;;;;1.92;0.68;;;17.40;64.30;;;;;;7402499;19;19936;-75
2023/01/18 00:28:49;;;;;;;1.10;0.40;;;17.30;64.20;;;;;;7402598;19;19917;-75
2023/01/18 00:31:20;;;;;;;1.88;0.20;;;17.30;64.60;;;;;;7402616;19;19923;-75
2023/01/18 00:33:51;;;;;;;1.42;0.13;;;17.30;64.30;;;;;;7401591;19;19925;-75
2023/01/18 00:36:21;;;;;;;2.05;0.70;;;17.30;64.20;;;;;;7402779;19;20341;-75
2023/01/18 00:38:55;;;;;;;0.60;0.10;;;17.30;64.20;;;;;;7402205;19;19926;-75
2023/01/18 00:41:24;;;;;;;1.20;0.55;;;17.30;64.20;;;;;;7402249;19;19918;-75
2023/01/18 00:43:51;;;;;;;0.95;0.20;;;17.30;64.20;;;;;;7402350;19;20271;-75
2023/01/18 00:46:26;;;;;;;1.02;0.10;;;17.20;64.20;;;;;;7400065;19;20292;-75
2023/01/18 00:48:57;;;;;;;1.55;0.60;;;17.20;64.20;;;;;;7402002;19;20377;-75
2023/01/18 00:51:27;;;;;;;1.67;0.57;;;17.20;64.20;;;;;;7402902;19;19914;-75
2023/01/18 00:53:59;;;;;;;0.82;0.10;;;17.20;64.20;;;;;;7400855;19;19914;-76
2023/01/18 00:56:28;;;;;;;0.93;0.10;;;17.20;64.20;;;;;;7401344;19;19922;-75
2023/01/18 00:58:56;;;;;;;1.30;0.65;;;17.20;64.20;;;;;;7402457;19;19926;-75
2023/01/18 01:01:25;;;;;;;1.35;0.50;;;17.20;64.20;;;;;;7401449;19;19940;-74
2023/01/18 01:06:46;;;;;;;1.20;0.60;;;17.20;64.10;;;;;;7401505;19;19930;-75
2023/01/18 01:09:20;;;;;;;1.05;0.55;;;17.20;64.10;;;;;;7401248;19;19915;-74
2023/01/18 01:28:00;;;;;;;1.23;0.10;;;17.10;64.10;;;;;;7402399;19;19921;-76
2023/01/18 01:30:29;;;;;;;0.85;0.10;;;17.10;64.10;;;;;;7404233;19;19914;-75
2023/01/18 01:32:57;;;;;;;1.35;0.88;;;17.00;64.00;;;;;;7402662;19;19929;-76
2023/01/18 01:35:27;;;;;;;1.35;0.50;;;17.10;64.10;;;;;;7404048;19;19919;-76
2023/01/18 01:37:56;;;;;;;1.52;0.68;;;17.00;64.10;;;;;;7407937;19;19918;-76
2023/01/18 01:40:27;;;;;;;1.08;0.40;;;17.00;64.00;;;;;;7410946;19;19918;-75
2023/01/18 01:42:56;;;;;;;1.75;0.60;;;17.00;64.00;;;;;;7410417;19;19911;-76
2023/01/18 01:45:28;;;;;;;0.82;0.20;;;17.00;64.00;;;;;;7405895;19;19921;-76
2023/01/18 01:47:59;;;;;;;1.05;0.20;;;17.00;64.00;;;;;;7409886;19;19978;-75
2023/01/18 01:50:34;;;;;;;0.95;0.47;;;17.00;64.00;;;;;;7411129;19;19933;-75
2023/01/18 01:53:04;;;;;;;1.20;0.20;;;17.00;64.00;;;;;;7408531;19;19919;-76
2023/01/18 01:55:39;;;;;;;1.40;0.75;;;17.00;64.10;;;;;;7408865;19;19928;-75
2023/01/18 01:58:12;;;;;;;1.08;0.50;;;17.00;64.00;;;;;;7410322;19;19925;-76
2023/01/18 02:00:41;;;;;;;0.95;0.10;;;16.90;64.00;;;;;;7406634;19;19915;-77
2023/01/18 02:03:14;;;;;;;0.98;0.20;;;16.90;64.00;;;;;;7409801;19;19990;-76
2023/01/18 02:05:46;;;;;;;1.55;0.60;;;16.90;64.00;;;;;;7406421;19;19919;-76
2023/01/18 02:08:21;;;;;;;1.67;0.63;;;16.90;64.00;;;;;;7409629;19;20698;-75
2023/01/18 02:10:53;;;;;;;1.58;0.35;;;16.90;64.00;;;;;;7407679;19;19930;-75
2023/01/18 02:13:24;;;;;;;1.10;0.50;;;16.90;64.00;;;;;;7409364;19;20361;-75
2023/01/18 02:16:01;;;;;;;1.70;0.55;;;16.90;64.50;;;;;;7406849;19;19926;-76
2023/01/18 02:18:33;;;;;;;1.23;0.40;;;16.90;63.90;;;;;;7409347;19;19910;-76
2023/01/18 02:21:25;;;;;;;0.90;0.10;;;16.90;63.90;;;;;;7407049;19;19922;-75
2023/01/18 02:24:23;;;;;;;1.25;0.20;;;16.90;63.80;;;;;;7407570;19;19929;-76
2023/01/18 02:27:01;;;;;;;0.90;0.22;;;17.00;63.70;;;;;;7406834;19;19923;-76
2023/01/18 02:29:55;;;;;;;1.25;0.57;;;17.00;63.70;;;;;;7406182;19;19935;-76
2023/01/18 02:32:31;;;;;;;1.15;0.10;;;17.00;63.60;;;;;;7405785;19;19914;-77
2023/01/18 02:35:10;;;;;;;0.50;0.10;;;17.10;63.60;;;;;;7403717;19;19919;-76
2023/01/18 02:37:47;;;;;;;1.67;0.13;;;17.10;63.40;;;;;;7405496;19;20273;-76
2023/01/18 02:40:23;;;;;;;1.25;1.08;;;17.10;63.40;;;;;;7405459;19;19918;-76
2023/01/18 02:48:24;;;;;;;0.88;0.10;;;17.30;63.30;;;;;;7406679;19;20253;-76
2023/01/18 02:50:53;;;;;;;1.20;0.40;;;17.40;63.20;;;;;;7404963;19;19933;-74
2023/01/18 02:53:22;;;;;;;1.40;0.50;;;17.40;63.00;;;;;;7405960;19;19922;-75
2023/01/18 02:55:56;;;;;;;0.95;0.57;;;17.50;62.90;;;;;;7404766;19;19919;-76
2023/01/18 02:58:30;;;;;;;1.10;0.50;;;17.60;62.80;;;;;;7409681;19;19926;-75
2023/01/18 03:01:05;;;;;;;1.63;0.20;;;17.70;62.60;;;;;;7405160;19;20275;-76
2023/01/18 03:03:35;;;;;;;;;;;17.80;62.60;;;;;;7410110;19;19989;-76
2023/01/18 03:06:07;;;;;;;1.13;0.47;;;17.80;62.40;;;;;;7404961;19;19915;-75
2023/01/18 03:08:42;;;;;;;1.00;0.57;;;17.90;62.30;;;;;;7405309;19;19926;-75
2023/01/18 03:11:15;;;;;;;1.30;0.20;;;18.00;62.30;;;;;;7404693;19;19920;-75
2023/01/18 03:14:03;;;;;;;1.10;0.10;;;18.00;62.20;;;;;;7404304;19;20304;-74
2023/01/18 03:16:56;;;;;;;0.85;0.50;;;18.00;62.10;;;;;;7404397;19;19918;-75
2023/01/18 03:22:15;;;;;;;1.35;0.10;;;18.00;62.10;;;;;;7408375;19;20355;-75
2023/01/18 03:24:43;;;;;;;1.48;0.60;;;18.00;62.10;;;;;;7404269;19;19923;-75
2023/01/18 03:35:25;;;;;;;1.00;0.50;;;17.90;62.10;;;;;;7402711;19;19954;-75
2023/01/18 03:37:57;;;;;;;0.68;0.10;;;17.80;62.20;;;;;;7404023;19;20272;-76
2023/01/18 03:40:30;;;;;;;1.08;0.10;;;17.80;62.20;;;;;;7406067;19;19929;-76
2023/01/18 03:43:12;;;;;;;1.38;0.10;;;17.80;62.20;;;;;;7404038;19;20379;-75
2023/01/18 03:45:44;;;;;;;1.73;1.48;;;17.80;62.20;;;;;;7405736;19;19931;-75
2023/01/18 03:48:17;;;;;;;1.13;0.55;;;17.70;62.30;;;;;;7402334;19;19923;-74
2023/01/18 03:50:53;;;;;;;1.13;0.40;;;17.70;62.40;;;;;;7403848;19;19978;-75
2023/01/18 03:53:31;;;;;;;1.30;0.85;;;17.60;62.40;;;;;;7403782;19;19925;-76
2023/01/18 03:56:05;;;;;;;0.82;0.10;;;17.60;62.50;;;;;;7406641;19;19939;-75
2023/01/18 03:58:38;;;;;;;0.95;0.43;;;17.60;62.80;;;;;;7401295;19;19935;-75
2023/01/18 04:01:08;;;;;;;1.15;0.50;;;17.50;62.50;;;;;;7403102;19;19919;-75
2023/01/18 04:03:39;;;;;;;0.82;0.20;;;17.40;62.60;;;;;;7403514;19;19919;-76
2023/01/18 04:06:09;;;;;;;1.60;0.60;;;17.40;62.50;;;;;;7403156;19;19922;-75
2023/01/18 04:08:38;;;;;;;1.10;0.60;;;17.40;62.60;;;;;;7403861;19;19939;-76
2023/01/18 04:11:07;;;;;;;1.10;0.60;;;17.30;62.70;;;;;;7402933;19;20718;-76
2023/01/18 04:13:36;;;;;;;1.20;0.55;;;17.30;62.70;;;;;;7404729;19;19926;-75
2023/01/18 04:16:06;;;;;;;0.80;0.50;;;17.30;62.80;;;;;;7406110;19;19922;-75
2023/01/18 04:18:35;;;;;;;1.15;0.52;;;17.30;62.80;;;;;;7403489;19;19926;-76
2023/01/18 04:21:07;;;;;;;1.10;0.60;;;17.20;62.80;;;;;;7401834;19;19921;-76
2023/01/18 04:23:36;;;;;;;0.93;0.55;;;17.20;62.90;;;;;;7403756;19;19918;-75
2023/01/18 04:26:05;;;;;;;1.25;0.60;;;17.20;62.90;;;;;;7402364;19;19930;-75
2023/01/18 04:28:34;;;;;;;0.93;0.60;;;17.10;62.90;;;;;;7402526;19;19990;-76
2023/01/18 04:31:03;;;;;;;1.10;0.50;;;17.10;62.90;;;;;;7402461;19;20341;-74
2023/01/18 04:33:31;;;;;;;1.30;0.68;;;17.10;63.00;;;;;;7402580;19;19921;-76
2023/01/18 04:36:01;;;;;;;0.80;0.55;;;17.10;63.10;;;;;;7401574;19;19937;-75
2023/01/18 04:38:33;;;;;;;1.40;0.52;;;17.10;63.00;;;;;;7402465;19;20564;-76
2023/01/18 04:41:04;;;;;;;0.77;0.47;;;17.00;63.00;;;;;;7402541;19;19934;-75
2023/01/18 04:43:33;;;;;;;1.60;0.40;;;17.00;63.10;;;;;;7403922;19;19922;-76
2023/01/18 04:46:02;;;;;;;0.82;0.50;;;17.00;63.00;;;;;;7402006;19;20374;-75
2023/01/18 04:48:31;;;;;;;1.25;0.60;;;17.00;62.90;;;;;;7401047;19;19923;-75
2023/01/18 04:51:00;;;;;;;1.00;0.30;;;17.00;62.90;;;;;;7400701;19;20388;-75
2023/01/18 04:53:29;;;;;;;1.20;0.52;;;17.00;62.90;;;;;;7402408;19;19929;-75
2023/01/18 04:56:00;;;;;;;1.40;0.60;;;17.00;62.80;;;;;;7403305;19;19921;-75
2023/01/18 04:58:29;;;;;;;1.00;0.60;;;17.10;62.80;;;;;;7399902;19;20348;-75
2023/01/18 05:01:02;;;;;;;1.45;0.50;;;17.10;62.80;;;;;;7401752;19;19910;-76
2023/01/18 05:03:36;;;;;;;1.10;0.63;;;17.10;62.80;;;;;;7401955;19;19911;-76
2023/01/18 05:06:07;;;;;;;0.90;0.10;;;17.10;62.70;;;;;;7401474;19;20323;-75
2023/01/18 05:08:39;;;;;;;1.60;0.80;;;17.20;62.70;;;;;;7402760;19;19940;-75
2023/01/18 05:11:13;;;;;;;0.98;0.57;;;17.20;62.60;;;;;;7406722;19;19926;-75
2023/01/18 05:13:42;;;;;;;1.13;0.77;;;17.20;62.60;;;;;;7412749;19;19925;-74
2023/01/18 05:16:15;;;;;;;;;;;17.30;62.60;;;;;;7407297;19;19925;-75
2023/01/18 05:18:44;;;;;;;1.23;0.73;;;17.30;62.40;;;;;;7408335;19;19918;-75
2023/01/18 05:21:13;;;;;;;1.00;0.55;;;17.30;62.30;;;;;;7405001;19;19970;-75
2023/01/18 05:23:43;;;;;;;0.90;0.80;;;17.40;62.20;;;;;;7409751;19;20680;-75
2023/01/18 05:26:18;;;;;;;0.88;0.57;;;17.50;62.10;;;;;;7407163;19;19918;-75
2023/01/18 05:28:47;;;;;;;1.77;0.60;;;17.50;62.00;;;;;;7407642;19;19925;-75
2023/01/18 05:31:19;;;;;;;1.33;0.50;;;17.60;62.00;;;;;;7408074;19;19922;-75
2023/01/18 05:33:48;;;;;;;0.93;0.10;;;17.70;61.80;;;;;;7407474;19;19922;-75
2023/01/18 05:36:17;;;;;;;1.10;0.57;;;17.80;61.70;;;;;;7405241;19;19922;-75
2023/01/18 05:38:48;;;;;;;1.15;0.45;;;17.90;61.60;;;;;;7409488;19;19978;-75
2023/01/18 05:41:20;;;;;;;0.82;0.65;;;17.90;61.50;;;;;;7410469;19;19943;-75
2023/01/18 05:43:48;;;;;;;0.82;0.38;;;17.90;61.40;;;;;;7410189;19;20000;-76
2023/01/18 05:46:18;;;;;;;1.52;0.68;;;18.00;61.40;;;;;;7409096;19;19933;-75
2023/01/18 05:48:46;;;;;;;1.10;0.60;;;18.00;61.30;;;;;;7410840;19;19943;-75
2023/01/18 05:51:15;;;;;;;0.90;0.50;;;17.90;61.30;;;;;;7409481;19;19923;-75
2023/01/18 05:53:44;;;;;;;0.90;0.57;;;18.00;61.30;;;;;;7409826;19;19923;-75
2023/01/18 05:56:14;;;;;;;0.98;0.20;;;17.90;61.30;;;;;;7408711;19;19929;-75
2023/01/18 05:58:46;;;;;;;1.50;0.60;;;17.90;61.30;;;;;;7408301;19;19922;-76
2023/01/18 06:01:20;;;;;;;1.33;0.25;;;17.90;61.40;;;;;;7409545;19;19922;-75
2023/01/18 06:03:49;;;;;;;1.05;0.22;;;17.90;61.30;;;;;;7407196;19;20367;-77
2023/01/18 06:06:18;;;;;;;1.30;1.05;;;17.90;61.40;;;;;;7406718;19;19914;-75
2023/01/18 06:08:47;;;;;;;1.33;0.50;;;17.80;61.30;;;;;;7408178;19;19926;-75
2023/01/18 06:11:16;;;;;;;0.80;0.10;;;17.80;61.30;;;;;;7406340;19;20333;-75
2023/01/18 06:13:47;;;;;;;1.13;0.50;;;17.80;61.30;;;;;;7410022;19;20002;-75
2023/01/18 06:16:16;;;;;;;1.00;0.65;;;17.70;61.30;;;;;;7404070;19;20343;-75
2023/01/18 06:18:45;;;;;;;1.05;0.60;;;17.70;61.40;;;;;;7406226;19;19925;-75
2023/01/18 06:21:14;;;;;;;0.60;0.10;;;17.60;61.40;;;;;;7402112;19;19970;-75
2023/01/18 06:23:43;;;;;;;1.48;0.10;;;17.60;61.50;;;;;;7407798;19;20012;-75
2023/01/18 06:26:12;;;;;;;0.82;0.20;;;17.60;61.60;;;;;;7405563;19;19984;-76
2023/01/18 06:28:41;;;;;;;1.00;0.10;;;17.50;61.60;;;;;;7405891;19;19925;-76
2023/01/18 06:31:13;;;;;;;0.80;0.10;;;17.40;62.10;;;;;;7405610;19;20261;-74
2023/01/18 06:33:42;;;;;;;1.02;0.10;;;17.40;61.60;;;;;;7411692;19;19919;-75
2023/01/18 06:36:11;;;;;;;1.02;0.55;;;17.40;61.70;;;;;;7403188;19;20000;-74
2023/01/18 06:38:40;;;;;;;0.88;0.10;;;17.30;61.80;;;;;;7407219;19;19922;-75
2023/01/18 06:41:09;;;;;;;1.25;0.50;;;17.30;61.80;;;;;;7407849;19;19930;-76
2023/01/18 06:43:38;;;;;;;1.42;0.50;;;17.30;61.90;;;;;;7406068;19;20250;-75
2023/01/18 06:46:10;;;;;;;0.82;0.20;;;17.20;61.80;;;;;;7406488;19;22114;-75
2023/01/18 06:48:41;;;;;;;0.77;0.17;;;17.20;61.90;;;;;;7406121;19;19918;-74
2023/01/18 06:51:20;;;;;;;1.38;0.45;;;17.20;62.00;;;;;;7405270;19;19940;-65
2023/01/18 06:53:49;;;;;;;1.23;0.20;;;17.20;62.10;;;;;;7394438;19;19982;-68
2023/01/18 06:56:19;;;;;;;0.90;0.30;;;17.10;62.10;;;;;;7401655;19;19942;-69
2023/01/18 06:58:48;;;;;;;1.42;0.30;;;17.10;62.20;;;;;;7404570;19;19926;-65
2023/01/18 07:01:17;;;;;;;0.70;0.20;;;17.10;62.20;;;;;;7406392;19;19914;-66
2023/01/18 07:03:48;;;;;;;1.63;0.73;;;17.10;62.20;;;;;;7406372;19;19922;-65
2023/01/18 07:06:17;;;;;;;5.00;0.30;;;17.10;62.20;;;;;;7406698;19;19952;-65
2023/01/18 07:08:46;;;;;;;1.38;0.20;;;17.10;62.30;;;;;;7405004;19;19926;-65
2023/01/18 07:11:15;;;;;;;0.98;0.22;;;17.10;62.40;;;;;;7405869;19;20250;-65
2023/01/18 07:13:45;;;;;;;0.77;0.20;;;17.10;62.30;;;;;;7405742;19;19915;-65
2023/01/18 07:16:16;;;;;;;0.95;0.30;;;17.20;62.30;;;;;;7402082;19;19922;-65
2023/01/18 07:18:50;;;;;;;1.38;0.50;;;17.20;62.30;;;;;;7403007;19;19927;-77
2023/01/18 07:21:21;;;;;;;1.25;0.20;;;17.20;62.30;;;;;;7406342;19;19926;-78
2023/01/18 07:23:51;;;;;;;1.27;0.17;;;17.30;62.30;;;;;;7406444;19;20349;-77
2023/01/18 07:26:19;;;;;;;1.85;0.50;;;17.30;62.20;;;;;;7406797;19;19943;-77
2023/01/18 07:28:49;;;;;;;0.95;0.50;;;17.40;62.20;;;;;;7406477;19;19926;-77
2023/01/18 07:31:18;;;;;;;;;;;17.50;62.10;;;;;;7408769;19;19922;-78
2023/01/18 07:33:50;;;;;;;1.10;0.55;;;17.60;62.00;;;;;;7405501;19;19933;-78
2023/01/18 07:36:21;;;;;;;1.08;0.55;;;17.70;61.80;;;;;;7405397;19;19929;-78
2023/01/18 07:38:49;;;;;;;0.98;0.10;;;17.70;61.60;;;;;;7406077;19;20376;-77
2023/01/18 07:41:21;;;;;;;0.80;0.20;;;17.90;61.50;;;;;;7406395;19;20297;-77
2023/01/18 07:43:52;;;;;;;0.80;0.20;;;17.90;61.40;;;;;;7406310;19;19933;-77
2023/01/18 07:46:21;;;;;;;1.35;0.65;;;18.00;61.30;;;;;;7404226;19;19914;-78
2023/01/18 07:48:53;;;;;;;1.30;0.60;;;18.00;61.20;;;;;;7405529;19;19951;-78
2023/01/18 07:51:22;;;;;;;1.85;0.13;;;18.00;61.10;;;;;;7406946;19;19922;-78
2023/01/18 07:53:55;;;;;;;1.30;0.80;;;18.10;61.20;;;;;;7405046;19;19930;-78
2023/01/18 07:56:24;;;;;;;1.88;0.68;;;18.10;61.20;;;;;;7404116;19;19927;-78
2023/01/18 07:58:54;;;;;;;1.42;0.60;;;18.10;61.20;;;;;;7405895;19;20352;-78
2023/01/18 08:01:25;;;;;;;0.98;0.75;;;18.00;61.30;;;;;;7405282;19;19932;-79
2023/01/18 08:03:56;;;;;;;1.23;0.30;;;18.00;61.20;;;;;;7405874;19;19918;-79
2023/01/18 08:06:27;;;;;;;1.20;0.22;;;18.00;61.30;;;;;;7404516;19;20766;-77
2023/01/18 08:08:58;;;;;;;1.00;0.50;;;17.90;61.30;;;;;;7406215;19;19925;-79
2023/01/18 08:11:27;;;;;;;1.63;0.10;;;17.90;61.30;;;;;;7406176;19;19935;-78
2023/01/18 08:13:56;;;;;;;0.85;0.63;;;17.90;61.30;;;;;;7405318;19;19918;-79
2023/01/18 08:16:26;;;;;;;0.57;0.10;;;17.90;61.40;;;;;;7402973;19;19923;-78
2023/01/18 08:18:57;;;;;;;1.50;0.80;;;17.80;61.40;;;;;;7404975;19;19918;-78
2023/01/18 08:21:26;;;;;;;1.27;0.15;;;17.80;61.40;;;;;;7405606;19;19939;-77
2023/01/18 08:23:55;;;;;;;0.75;0.40;;;17.70;61.40;;;;;;7405173;19;19928;-78
2023/01/18 08:26:24;;;;;;;0.90;0.50;;;17.70;61.40;;;;;;7404448;19;19922;-78
2023/01/18 08:28:53;;;;;;;2.25;0.20;;;17.60;61.40;;;;;;7404995;19;20240;-79
2023/01/18 08:31:23;;;;;;;0.80;0.10;;;17.60;61.50;;;;;;7405586;19;20323;-79
2023/01/18 08:33:52;;;;;;;1.75;0.55;;;17.60;61.60;;;;;;7402908;19;19926;-79
2023/01/18 08:36:26;;;;;;;0.93;0.10;;;17.60;61.60;;;;;;7401291;19;19918;-78
2023/01/18 08:38:58;;;;;;;0.98;0.20;;;17.50;61.70;;;;;;7403634;19;20249;-78
2023/01/18 08:41:30;;;;;;;1.35;0.70;;;17.50;61.70;;;;;;7403150;19;19923;-77
2023/01/18 08:44:00;;;;;;;0.70;0.20;;;17.40;61.70;;;;;;7403431;19;19928;-79
2023/01/18 08:46:30;;;;;;;2.03;0.20;;;17.40;61.80;;;;;;7404927;19;20268;-78
2023/01/18 08:49:00;;;;;;;1.48;1.38;;;17.30;61.80;;;;;;7403561;19;19935;-76
2023/01/18 08:51:31;;;;;;;1.23;0.73;;;17.30;61.90;;;;;;7404088;19;20001;-78
2023/01/18 08:54:00;;;;;;;1.15;0.52;;;17.30;62.00;;;;;;7402542;19;20332;-79
2023/01/18 08:56:29;;;;;;;0.80;0.10;;;17.30;62.00;;;;;;7403170;19;20604;-79
2023/01/18 08:58:58;;;;;;;1.23;0.40;;;17.20;62.20;;;;;;7405263;19;20405;-78
2023/01/18 09:01:27;;;;;;;1.58;0.88;;;17.20;62.10;;;;;;7404975;19;19927;-79
2023/01/18 09:03:57;;;;;;;0.93;0.32;;;17.20;62.10;;;;;;7404463;19;20410;-78
2023/01/18 09:06:30;;;;;;;1.00;0.43;;;17.20;62.10;;;;;;7404189;19;19978;-78
2023/01/18 09:09:04;;;;;;;1.25;0.28;;;17.10;62.10;;;;;;7403894;19;19914;-78
2023/01/18 09:11:33;;;;;;;1.10;0.55;;;17.10;62.10;;;;;;7404202;19;19934;-79
2023/01/18 09:14:02;;;;;;;1.17;0.17;;;17.10;62.10;;;;;;7404254;19;19978;-79
2023/01/18 09:16:31;;;;;;;1.85;0.82;;;17.10;62.00;;;;;;7403493;19;19926;-78
2023/01/18 09:19:05;;;;;;;0.52;0.20;;;17.10;61.90;;;;;;7404735;19;20490;-79
2023/01/18 09:21:34;;;;;;;1.55;0.70;;;17.20;61.90;;;;;;7404027;19;20655;-78
2023/01/18 09:24:08;;;;;;;1.33;0.20;;;17.20;61.80;;;;;;7403787;19;19914;-79
2023/01/18 09:26:37;;;;;;;1.20;0.63;;;17.30;61.80;;;;;;7404213;19;19927;-78
2023/01/18 09:29:06;;;;;;;1.20;0.50;;;17.30;61.60;;;;;;7403749;19;19926;-78
2023/01/18 09:31:35;;;;;;;1.90;0.75;;;17.40;61.60;;;;;;7402695;19;19927;-78
2023/01/18 09:34:04;;;;;;;1.40;0.60;;;17.50;61.40;;;;;;7402064;19;19926;-78
2023/01/18 09:36:33;;;;;;;1.40;0.82;;;17.60;61.30;;;;;;7401187;19;19940;-78
2023/01/18 09:39:03;;;;;;;1.00;0.40;;;17.70;61.20;;;;;;7403404;19;19934;-79
2023/01/18 09:41:37;;;;;;;1.25;0.40;;;17.80;61.00;;;;;;7402916;19;19923;-78
2023/01/18 09:44:10;;;;;;;1.52;0.68;;;17.90;60.90;;;;;;7401234;19;20294;-79
2023/01/18 09:46:42;;;;;;;1.63;0.85;;;17.90;60.80;;;;;;7401186;19;19925;-79
2023/01/18 09:49:20;;;;;;;1.30;0.20;;;18.00;60.80;;;;;;7401712;19;19926;-79
2023/01/18 09:51:58;;;;;;;0.77;0.15;;;18.00;60.60;;;;;;7403410;19;19914;-77
2023/01/18 09:54:39;;;;;;;1.30;0.70;;;18.00;60.60;;;;;;7402329;19;19974;-79
2023/01/18 09:57:21;;;;;;;1.38;1.00;;;18.20;60.50;;;;;;7401916;19;19942;-79
2023/01/18 09:59:56;;;;;;;1.30;0.70;;;18.10;60.50;;;;;;7409028;19;19927;-78
2023/01/18 10:02:31;;;;;;;1.75;0.57;;;18.20;60.40;;;;;;7409360;19;20328;-79
2023/01/18 10:05:05;;;;;;;1.15;0.85;;;18.20;60.40;;;;;;7407816;19;19937;-78
2023/01/18 10:07:44;;;;;;;0.95;0.50;;;18.20;60.40;;;;;;7408114;19;19935;-78
2023/01/18 10:10:17;;;;;;;1.45;0.80;;;18.20;60.40;;;;;;7405650;19;19922;-78
2023/01/18 10:12:59;;;;;;;1.42;0.13;;;18.20;60.40;;;;;;7408885;19;20309;-79
2023/01/18 10:15:33;;;;;;;2.10;0.65;;;18.20;60.40;;;;;;7406856;19;20438;-78
2023/01/18 10:18:02;;;;;;;1.35;0.32;;;18.20;60.40;;;;;;7406526;19;20363;-77
2023/01/18 10:20:39;;;;;;;1.48;0.98;;;18.20;60.50;;;;;;7407535;19;19942;-78
2023/01/18 10:23:17;;;;;;;1.65;0.20;;;18.20;60.40;;;;;;7408742;19;19918;-78
2023/01/18 10:25:53;;;;;;;1.33;0.20;;;18.20;60.40;;;;;;7408985;19;19919;-79
2023/01/18 10:28:38;;;;;;;1.25;0.20;;;18.10;60.40;;;;;;7409199;19;20362;-79
2023/01/18 10:31:24;;;;;;;0.98;0.60;;;18.20;60.50;;;;;;7407371;19;19930;-78
2023/01/18 10:33:57;;;;;;;1.23;0.20;;;18.20;60.50;;;;;;7408211;19;19927;-78
2023/01/18 10:36:32;;;;;;;1.33;0.77;;;18.10;60.60;;;;;;7408184;19;19923;-78
2023/01/18 10:39:04;;;;;;;1.20;0.20;;;18.10;60.60;;;;;;7407136;19;19922;-78
2023/01/18 10:41:39;;;;;;;2.10;0.20;;;18.00;60.60;;;;;;7408581;19;20377;-78
2023/01/18 10:44:11;;;;;;;1.38;0.68;;;18.00;60.60;;;;;;7407631;19;19936;-78
2023/01/18 10:46:40;;;;;;;1.00;0.60;;;18.00;60.70;;;;;;7404773;19;19966;-78
2023/01/18 10:49:30;;;;;;;1.35;0.22;;;18.00;60.80;;;;;;7407223;19;20268;-78
2023/01/18 10:52:18;;;;;;;1.20;0.17;;;18.00;60.90;;;;;;7408529;19;19943;-78
2023/01/18 10:55:00;;;;;;;1.75;0.50;;;18.00;60.90;;;;;;7406962;19;19933;-78
2023/01/18 10:57:32;;;;;;;1.30;0.65;;;17.90;61.00;;;;;;7406899;19;19930;-79
2023/01/18 11:00:01;;;;;;;1.60;0.77;;;18.00;61.10;;;;;;7407046;19;20009;-78
2023/01/18 11:02:31;;;;;;;;;;;17.90;61.10;;;;;;7409393;19;19922;-78
2023/01/18 11:05:06;;;;;;;1.10;0.25;;;17.90;61.20;;;;;;7405562;19;19922;-78
2023/01/18 11:07:38;;;;;;;1.10;0.20;;;17.90;61.30;;;;;;7406467;19;19952;-78
2023/01/18 11:10:08;;;;;;;1.48;0.20;;;17.90;61.20;;;;;;7407390;19;20031;-79
2023/01/18 11:12:46;;;;;;;1.65;0.10;;;17.90;61.40;;;;;;7407440;19;19928;-77
2023/01/18 11:15:28;;;;;;;1.33;0.80;;;17.90;61.40;;;;;;7404822;19;19954;-69
2023/01/18 11:18:11;;;;;;;1.63;0.73;;;17.90;61.40;;;;;;7402069;19;19925;-62
2023/01/18 11:20:48;;;;;;;1.70;0.57;;;17.90;61.40;;;;;;7405584;19;19946;-62
2023/01/18 11:23:24;;;;;;;1.90;0.20;;;18.00;61.50;;;;;;7405494;19;19940;-62
2023/01/18 11:25:58;;;;;;;1.73;0.90;;;18.00;61.50;;;;;;7405709;19;19985;-64
2023/01/18 11:28:31;;;;;;;1.58;0.95;;;18.00;61.50;;;;;;7366521;19;19929;-64
2023/01/18 11:31:07;;;;;;;1.38;0.30;;;18.00;61.60;;;;;;7404123;19;20456;-64
2023/01/18 11:33:39;;;;;;;1.55;0.35;;;18.00;61.60;;;;;;7405670;19;19948;-63
2023/01/18 11:36:08;;;;;;;1.73;0.70;;;18.00;62.20;;;;;;7406984;19;19927;-63
2023/01/18 11:38:40;;;;;;;;;;;18.00;61.60;;;;;;7407098;19;19918;-63
2023/01/18 11:41:18;;;;;;;1.63;0.20;;;18.00;61.90;;;;;;7403499;19;20353;-63
2023/01/18 11:44:10;;;;;;;0.95;0.30;;;18.00;61.70;;;;;;7404708;19;19930;-63
2023/01/18 11:46:45;;;;;;;1.52;1.10;;;18.10;62.40;;;;;;7403804;19;20325;-64
2023/01/18 11:49:30;;;;;;;1.50;0.90;;;18.10;61.70;;;;;;7405780;19;19914;-64
2023/01/18 11:52:04;;;;;;;0.82;0.10;;;18.10;61.80;;;;;;7405359;19;19919;-63
2023/01/18 11:54:40;;;;;;;1.48;0.47;;;18.10;61.80;;;;;;7403282;19;20344;-64
2023/01/18 11:57:11;;;;;;;;;;;18.10;61.80;;;;;;7405003;19;19921;-63
2023/01/18 11:59:44;;;;;;;1.65;0.10;;;18.10;62.00;;;;;;7405164;19;19918;-64
2023/01/18 12:02:54;;;;;;;1.70;0.20;;;18.10;61.90;;;;;;7405372;19;19914;-63
2023/01/18 12:05:49;;;;;;;1.40;0.68;;;18.10;61.90;;;;;;7403548;19;19914;-76
2023/01/18 12:08:30;;;;;;;;;;;18.20;62.00;;;;;;7406268;19;19926;-71
2023/01/18 12:11:14;;;;;;;1.80;1.00;;;18.20;62.20;;;;;;7405046;19;19919;-66
2023/01/18 12:13:44;;;;;;;1.52;0.30;;;18.20;62.00;;;;;;7403015;19;19919;-78
2023/01/18 12:16:19;;;;;;;1.55;0.93;;;18.20;61.90;;;;;;7403317;19;19943;-69
2023/01/18 12:19:20;;;;;;;1.35;0.75;;;18.20;62.60;;;;;;7400614;19;20364;-67
2023/01/18 12:22:13;;;;;;;1.42;0.80;;;18.30;62.20;;;;;;7402049;19;19923;-67
2023/01/18 12:24:52;;;;;;;1.65;0.60;;;18.30;62.40;;;;;;7403720;19;19945;-77
2023/01/18 12:27:34;;;;;;;1.25;0.10;;;18.30;62.20;;;;;;7403263;19;20264;-79
2023/01/18 12:30:22;;;;;;;1.33;0.30;;;18.30;62.30;;;;;;7404895;19;20002;-77
2023/01/18 12:33:05;;;;;;;1.13;0.82;;;18.30;62.80;;;;;;7403656;19;19919;-77
2023/01/18 12:36:00;;;;;;;1.38;0.30;;;18.30;62.30;;;;;;7404996;19;19947;-78
2023/01/18 12:38:31;;;;;;;1.50;0.68;;;18.30;62.30;;;;;;7403204;19;19923;-77
2023/01/18 12:41:34;;;;;;;1.65;0.85;;;18.40;62.30;;;;;;7403263;19;19929;-78
2023/01/18 12:44:24;;;;;;;1.40;0.88;;;18.40;62.40;;;;;;7405755;19;19993;-78
2023/01/18 12:47:05;;;;;;;1.13;0.20;;;18.40;62.40;;;;;;7401495;19;19921;-77
2023/01/18 12:49:40;;;;;;;1.60;0.35;;;18.40;62.40;;;;;;7403702;19;19934;-78
2023/01/18 12:52:10;;;;;;;1.75;0.63;;;18.40;62.30;;;;;;7403325;19;19915;-78
2023/01/18 12:54:44;;;;;;;1.33;0.55;;;18.40;62.90;;;;;;7405325;19;20383;-78
2023/01/18 12:57:15;;;;;;;0.90;0.10;;;18.40;62.30;;;;;;7404833;19;20608;-78
2023/01/18 12:59:55;;;;;;;1.38;0.77;;;18.50;62.50;;;;;;7403971;19;19952;-78
2023/01/18 13:02:33;;;;;;;1.48;0.85;;;18.50;62.30;;;;;;7405262;19;19986;-78
2023/01/18 13:05:08;;;;;;;1.25;0.20;;;18.50;62.40;;;;;;7404062;19;19926;-77
2023/01/18 13:07:41;;;;;;;1.08;0.20;;;18.50;62.40;;;;;;7405378;19;20259;-79
2023/01/18 13:10:19;;;;;;;1.30;0.68;;;18.50;62.40;;;;;;7404561;19;20397;-77
2023/01/18 13:12:50;;;;;;;1.38;0.25;;;18.50;62.40;;;;;;7402972;19;19925;-77
2023/01/18 13:15:34;;;;;;;1.10;0.20;;;18.50;62.40;;;;;;7404556;19;19932;-78
2023/01/18 13:18:12;;;;;;;1.67;0.85;;;18.60;62.40;;;;;;7402920;19;19914;-77
2023/01/18 13:20:51;;;;;;;1.83;1.63;;;18.50;62.40;;;;;;7404610;19;19933;-78
2023/01/18 13:23:32;;;;;;;1.52;0.70;;;18.50;62.30;;;;;;7403717;19;19954;-77
2023/01/18 13:26:11;;;;;;;1.30;0.63;;;18.50;62.30;;;;;;7403434;19;20014;-78
2023/01/18 13:28:42;;;;;;;1.20;0.70;;;18.50;62.30;;;;;;7402803;19;20388;-78
2023/01/18 13:31:13;;;;;;;2.42;0.95;;;18.50;62.30;;;;;;7406776;19;20611;-78
2023/01/18 13:33:45;;;;;;;1.77;0.60;;;18.50;62.30;;;;;;7410585;19;20237;-78
2023/01/18 13:36:17;;;;;;;0.90;0.20;;;18.40;62.20;;;;;;7409840;19;19923;-78
2023/01/18 13:38:52;;;;;;;1.17;0.70;;;18.40;62.30;;;;;;7406702;19;19922;-77
2023/01/18 13:41:25;;;;;;;1.15;0.20;;;18.40;62.30;;;;;;7410344;19;19926;-79
2023/01/18 13:44:06;;;;;;;1.48;0.25;;;18.30;62.30;;;;;;7407379;19;19907;-78
2023/01/18 13:46:41;;;;;;;1.55;0.88;;;18.30;62.30;;;;;;7407754;19;19982;-79
2023/01/18 13:49:36;;;;;;;1.00;0.20;;;18.30;62.30;;;;;;7405919;19;19918;-77
2023/01/18 13:52:05;;;;;;;1.70;0.85;;;18.30;62.30;;;;;;7407020;19;19924;-78
2023/01/18 13:54:49;;;;;;;;;;;18.30;62.30;;;;;;7409127;19;19919;-77